sensor_id;sensor_type;location;lat;lon;timestamp;P1;durP1;ratioP1;P2;durP2;ratioP2
49456;SDS011;35352;51.480;-0.862;2022-09-09T00:02:18;3;;;3;;
49456;SDS011;35352;51.480;-0.862;2022-09-09T00:04:48;4;;;4;;
49456;SDS011;35352;51.480;-0.862;2022-09-09T00:07:28;3;;;3;;
49456;SDS011;35352;51.480;-0.862;2022-09-09T00:11:13;1;;;1;;
49456;SDS011;35352;51.480;-0.862;2022-09-09T00:13:46;3;;;3;;
49456;SDS011;35352;51.480;-0.862;2022-09-09T00:16:20;4;;;4;;
49456;SDS011;35352;51.480;-0.862;2022-09-09T00:18:54;3;;;3;;
49456;SDS011;35352;51.480;-0.862;2022-09-09T00:21:31;4;;;4;;
49456;SDS011;35352;51.480;-0.862;2022-09-09T00:24:00;3;;;3;;
49456;SDS011;35352;51.480;-0.862;2022-09-09T00:26:40;3;;;3;;
49456;SDS011;35352;51.480;-0.862;2022-09-09T00:29:14;6;;;5;;
49456;SDS011;35352;51.480;-0.862;2022-09-09T00:31:51;2;;;2;;
49456;SDS011;35352;51.480;-0.862;2022-09-09T00:34:24;3;;;2;;
49456;SDS011;35352;51.480;-0.862;2022-09-09T00:36:54;4;;;4;;
49456;SDS011;35352;51.480;-0.862;2022-09-09T00:39:25;5;;;3;;
49456;SDS011;35352;51.480;-0.862;2022-09-09T00:42:04;4;;;4;;
49456;SDS011;35352;51.480;-0.862;2022-09-09T00:44:46;3;;;2;;
49456;SDS011;35352;51.480;-0.862;2022-09-09T00:47:29;6;;;4;;
49456;SDS011;35352;51.480;-0.862;2022-09-09T00:51:14;2;;;2;;
49456;SDS011;35352;51.480;-0.862;2022-09-09T00:53:56;4;;;4;;
49456;SDS011;35352;51.480;-0.862;2022-09-09T00:56:41;6;;;3;;
49456;SDS011;35352;51.480;-0.862;2022-09-09T00:59:24;6;;;5;;
49456;SDS011;35352;51.480;-0.862;2022-09-09T01:02:04;5;;;4;;
49456;SDS011;35352;51.480;-0.862;2022-09-09T01:04:42;5;;;3;;
49456;SDS011;35352;51.480;-0.862;2022-09-09T01:07:11;6;;;6;;
49456;SDS011;35352;51.480;-0.862;2022-09-09T01:09:47;3;;;3;;
49456;SDS011;35352;51.480;-0.862;2022-09-09T01:12:24;3;;;3;;
49456;SDS011;35352;51.480;-0.862;2022-09-09T01:14:56;5;;;4;;
49456;SDS011;35352;51.480;-0.862;2022-09-09T01:17:31;6;;;5;;
49456;SDS011;35352;51.480;-0.862;2022-09-09T01:21:15;1;;;1;;
49456;SDS011;35352;51.480;-0.862;2022-09-09T01:24:03;3;;;3;;
49456;SDS011;35352;51.480;-0.862;2022-09-09T01:26:48;5;;;4;;
49456;SDS011;35352;51.480;-0.862;2022-09-09T01:29:18;3;;;3;;
49456;SDS011;35352;51.480;-0.862;2022-09-09T01:31:52;6;;;4;;
49456;SDS011;35352;51.480;-0.862;2022-09-09T01:34:23;3;;;3;;
49456;SDS011;35352;51.480;-0.862;2022-09-09T01:36:53;5;;;3;;
49456;SDS011;35352;51.480;-0.862;2022-09-09T01:39:26;5;;;5;;
49456;SDS011;35352;51.480;-0.862;2022-09-09T01:41:54;6;;;5;;
49456;SDS011;35352;51.480;-0.862;2022-09-09T01:44:22;4;;;3;;
49456;SDS011;35352;51.480;-0.862;2022-09-09T01:46:49;3;;;3;;
49456;SDS011;35352;51.480;-0.862;2022-09-09T01:49:16;4;;;4;;
49456;SDS011;35352;51.480;-0.862;2022-09-09T01:51:46;4;;;3;;
49456;SDS011;35352;51.480;-0.862;2022-09-09T01:54:15;3;;;3;;
49456;SDS011;35352;51.480;-0.862;2022-09-09T01:56:47;6;;;6;;
49456;SDS011;35352;51.480;-0.862;2022-09-09T01:59:24;5;;;3;;
49456;SDS011;35352;51.480;-0.862;2022-09-09T02:02:07;4;;;4;;
49456;SDS011;35352;51.480;-0.862;2022-09-09T02:04:38;5;;;4;;
49456;SDS011;35352;51.480;-0.862;2022-09-09T02:07:14;2;;;2;;
49456;SDS011;35352;51.480;-0.862;2022-09-09T02:10:00;4;;;4;;
49456;SDS011;35352;51.480;-0.862;2022-09-09T02:12:37;2;;;2;;
49456;SDS011;35352;51.480;-0.862;2022-09-09T02:15:12;7;;;5;;
49456;SDS011;35352;51.480;-0.862;2022-09-09T02:17:49;5;;;4;;
49456;SDS011;35352;51.480;-0.862;2022-09-09T02:21:13;3;;;3;;
49456;SDS011;35352;51.480;-0.862;2022-09-09T02:23:42;3;;;3;;
49456;SDS011;35352;51.480;-0.862;2022-09-09T02:26:11;8;;;5;;
49456;SDS011;35352;51.480;-0.862;2022-09-09T02:28:41;3;;;3;;
49456;SDS011;35352;51.480;-0.862;2022-09-09T02:31:12;5;;;5;;
49456;SDS011;35352;51.480;-0.862;2022-09-09T02:33:44;3;;;3;;
49456;SDS011;35352;51.480;-0.862;2022-09-09T02:36:19;5;;;4;;
49456;SDS011;35352;51.480;-0.862;2022-09-09T02:38:51;6;;;5;;
49456;SDS011;35352;51.480;-0.862;2022-09-09T02:41:19;4;;;4;;
49456;SDS011;35352;51.480;-0.862;2022-09-09T02:43:51;4;;;3;;
49456;SDS011;35352;51.480;-0.862;2022-09-09T02:46:22;7;;;4;;
49456;SDS011;35352;51.480;-0.862;2022-09-09T02:49:00;4;;;4;;
49456;SDS011;35352;51.480;-0.862;2022-09-09T02:51:32;6;;;6;;
49456;SDS011;35352;51.480;-0.862;2022-09-09T02:54:10;4;;;4;;
49456;SDS011;35352;51.480;-0.862;2022-09-09T02:56:46;7;;;7;;
49456;SDS011;35352;51.480;-0.862;2022-09-09T02:59:18;6;;;5;;
49456;SDS011;35352;51.480;-0.862;2022-09-09T03:01:45;9;;;9;;
49456;SDS011;35352;51.480;-0.862;2022-09-09T03:04:13;9;;;9;;
49456;SDS011;35352;51.480;-0.862;2022-09-09T03:06:40;11;;;8;;
49456;SDS011;35352;51.480;-0.862;2022-09-09T03:09:07;9;;;8;;
49456;SDS011;35352;51.480;-0.862;2022-09-09T03:11:34;11;;;9;;
49456;SDS011;35352;51.480;-0.862;2022-09-09T03:14:02;13;;;10;;
49456;SDS011;35352;51.480;-0.862;2022-09-09T03:16:30;15;;;13;;
49456;SDS011;35352;51.480;-0.862;2022-09-09T03:18:57;12;;;11;;
49456;SDS011;35352;51.480;-0.862;2022-09-09T03:21:24;12;;;11;;
49456;SDS011;35352;51.480;-0.862;2022-09-09T03:23:51;9;;;8;;
49456;SDS011;35352;51.480;-0.862;2022-09-09T03:26:18;14;;;11;;
49456;SDS011;35352;51.480;-0.862;2022-09-09T03:28:45;10;;;10;;
49456;SDS011;35352;51.480;-0.862;2022-09-09T03:31:13;8;;;7;;
49456;SDS011;35352;51.480;-0.862;2022-09-09T03:33:40;11;;;11;;
49456;SDS011;35352;51.480;-0.862;2022-09-09T03:36:08;14;;;11;;
49456;SDS011;35352;51.480;-0.862;2022-09-09T03:38:35;18;;;13;;
49456;SDS011;35352;51.480;-0.862;2022-09-09T03:41:13;8;;;8;;
49456;SDS011;35352;51.480;-0.862;2022-09-09T03:43:40;10;;;7;;
49456;SDS011;35352;51.480;-0.862;2022-09-09T03:46:07;11;;;10;;
49456;SDS011;35352;51.480;-0.862;2022-09-09T03:48:35;12;;;11;;
49456;SDS011;35352;51.480;-0.862;2022-09-09T03:51:13;9;;;9;;
49456;SDS011;35352;51.480;-0.862;2022-09-09T03:53:40;10;;;10;;
49456;SDS011;35352;51.480;-0.862;2022-09-09T03:56:08;12;;;10;;
49456;SDS011;35352;51.480;-0.862;2022-09-09T03:58:36;7;;;7;;
49456;SDS011;35352;51.480;-0.862;2022-09-09T04:01:13;7;;;7;;
49456;SDS011;35352;51.480;-0.862;2022-09-09T04:03:41;10;;;10;;
49456;SDS011;35352;51.480;-0.862;2022-09-09T04:06:09;18;;;15;;
49456;SDS011;35352;51.480;-0.862;2022-09-09T04:08:38;16;;;14;;
49456;SDS011;35352;51.480;-0.862;2022-09-09T04:11:12;7;;;7;;
49456;SDS011;35352;51.480;-0.862;2022-09-09T04:13:39;11;;;11;;
49456;SDS011;35352;51.480;-0.862;2022-09-09T04:16:12;13;;;13;;
49456;SDS011;35352;51.480;-0.862;2022-09-09T04:18:40;15;;;14;;
49456;SDS011;35352;51.480;-0.862;2022-09-09T04:21:13;13;;;13;;
49456;SDS011;35352;51.480;-0.862;2022-09-09T04:23:40;12;;;12;;
49456;SDS011;35352;51.480;-0.862;2022-09-09T04:26:08;17;;;17;;
49456;SDS011;35352;51.480;-0.862;2022-09-09T04:28:36;17;;;17;;
49456;SDS011;35352;51.480;-0.862;2022-09-09T04:31:14;16;;;13;;
49456;SDS011;35352;51.480;-0.862;2022-09-09T04:33:43;16;;;15;;
49456;SDS011;35352;51.480;-0.862;2022-09-09T04:36:10;20;;;19;;
49456;SDS011;35352;51.480;-0.862;2022-09-09T04:38:37;17;;;17;;
49456;SDS011;35352;51.480;-0.862;2022-09-09T04:41:14;17;;;15;;
49456;SDS011;35352;51.480;-0.862;2022-09-09T04:43:42;17;;;17;;
49456;SDS011;35352;51.480;-0.862;2022-09-09T04:46:09;16;;;14;;
49456;SDS011;35352;51.480;-0.862;2022-09-09T04:48:37;19;;;16;;
49456;SDS011;35352;51.480;-0.862;2022-09-09T04:51:13;13;;;13;;
49456;SDS011;35352;51.480;-0.862;2022-09-09T04:53:40;14;;;13;;
49456;SDS011;35352;51.480;-0.862;2022-09-09T04:56:08;15;;;14;;
49456;SDS011;35352;51.480;-0.862;2022-09-09T04:58:39;13;;;12;;
49456;SDS011;35352;51.480;-0.862;2022-09-09T05:01:13;13;;;12;;
49456;SDS011;35352;51.480;-0.862;2022-09-09T05:03:41;13;;;13;;
49456;SDS011;35352;51.480;-0.862;2022-09-09T05:06:09;18;;;15;;
49456;SDS011;35352;51.480;-0.862;2022-09-09T05:08:38;17;;;14;;
49456;SDS011;35352;51.480;-0.862;2022-09-09T05:11:14;8;;;8;;
49456;SDS011;35352;51.480;-0.862;2022-09-09T05:13:43;18;;;16;;
49456;SDS011;35352;51.480;-0.862;2022-09-09T05:16:11;14;;;13;;
49456;SDS011;35352;51.480;-0.862;2022-09-09T05:18:39;17;;;16;;
49456;SDS011;35352;51.480;-0.862;2022-09-09T05:21:14;15;;;14;;
49456;SDS011;35352;51.480;-0.862;2022-09-09T05:23:44;15;;;14;;
49456;SDS011;35352;51.480;-0.862;2022-09-09T05:26:13;21;;;18;;
49456;SDS011;35352;51.480;-0.862;2022-09-09T05:28:42;14;;;14;;
49456;SDS011;35352;51.480;-0.862;2022-09-09T05:31:14;14;;;14;;
49456;SDS011;35352;51.480;-0.862;2022-09-09T05:33:43;15;;;13;;
49456;SDS011;35352;51.480;-0.862;2022-09-09T05:36:12;20;;;19;;
49456;SDS011;35352;51.480;-0.862;2022-09-09T05:38:40;21;;;16;;
49456;SDS011;35352;51.480;-0.862;2022-09-09T05:41:13;14;;;14;;
49456;SDS011;35352;51.480;-0.862;2022-09-09T05:43:41;21;;;19;;
49456;SDS011;35352;51.480;-0.862;2022-09-09T05:46:10;16;;;16;;
49456;SDS011;35352;51.480;-0.862;2022-09-09T05:48:40;19;;;16;;
49456;SDS011;35352;51.480;-0.862;2022-09-09T05:51:13;14;;;14;;
49456;SDS011;35352;51.480;-0.862;2022-09-09T05:53:43;13;;;12;;
49456;SDS011;35352;51.480;-0.862;2022-09-09T05:56:12;20;;;18;;
49456;SDS011;35352;51.480;-0.862;2022-09-09T05:58:42;17;;;14;;
49456;SDS011;35352;51.480;-0.862;2022-09-09T06:01:13;13;;;13;;
49456;SDS011;35352;51.480;-0.862;2022-09-09T06:03:43;19;;;16;;
49456;SDS011;35352;51.480;-0.862;2022-09-09T06:06:12;14;;;14;;
49456;SDS011;35352;51.480;-0.862;2022-09-09T06:08:42;14;;;13;;
49456;SDS011;35352;51.480;-0.862;2022-09-09T06:11:14;11;;;11;;
49456;SDS011;35352;51.480;-0.862;2022-09-09T06:13:44;13;;;11;;
49456;SDS011;35352;51.480;-0.862;2022-09-09T06:16:13;12;;;12;;
49456;SDS011;35352;51.480;-0.862;2022-09-09T06:18:42;10;;;9;;
49456;SDS011;35352;51.480;-0.862;2022-09-09T06:21:14;13;;;11;;
49456;SDS011;35352;51.480;-0.862;2022-09-09T06:23:43;16;;;16;;
49456;SDS011;35352;51.480;-0.862;2022-09-09T06:26:13;11;;;11;;
49456;SDS011;35352;51.480;-0.862;2022-09-09T06:28:42;12;;;12;;
49456;SDS011;35352;51.480;-0.862;2022-09-09T06:31:13;12;;;11;;
49456;SDS011;35352;51.480;-0.862;2022-09-09T06:33:42;21;;;20;;
49456;SDS011;35352;51.480;-0.862;2022-09-09T06:36:11;18;;;15;;
49456;SDS011;35352;51.480;-0.862;2022-09-09T06:38:40;15;;;13;;
49456;SDS011;35352;51.480;-0.862;2022-09-09T06:41:13;9;;;7;;
49456;SDS011;35352;51.480;-0.862;2022-09-09T06:43:41;16;;;15;;
49456;SDS011;35352;51.480;-0.862;2022-09-09T06:46:09;14;;;14;;
49456;SDS011;35352;51.480;-0.862;2022-09-09T06:48:38;19;;;15;;
49456;SDS011;35352;51.480;-0.862;2022-09-09T06:51:13;14;;;12;;
49456;SDS011;35352;51.480;-0.862;2022-09-09T06:53:44;18;;;16;;
49456;SDS011;35352;51.480;-0.862;2022-09-09T06:56:18;16;;;15;;
49456;SDS011;35352;51.480;-0.862;2022-09-09T06:58:47;12;;;11;;
49456;SDS011;35352;51.480;-0.862;2022-09-09T07:01:13;10;;;10;;
49456;SDS011;35352;51.480;-0.862;2022-09-09T07:03:42;21;;;16;;
49456;SDS011;35352;51.480;-0.862;2022-09-09T07:06:14;11;;;11;;
49456;SDS011;35352;51.480;-0.862;2022-09-09T07:08:42;13;;;11;;
49456;SDS011;35352;51.480;-0.862;2022-09-09T07:11:13;9;;;9;;
49456;SDS011;35352;51.480;-0.862;2022-09-09T07:13:40;12;;;10;;
49456;SDS011;35352;51.480;-0.862;2022-09-09T07:16:08;8;;;8;;
49456;SDS011;35352;51.480;-0.862;2022-09-09T07:18:37;12;;;12;;
49456;SDS011;35352;51.480;-0.862;2022-09-09T07:21:13;8;;;8;;
49456;SDS011;35352;51.480;-0.862;2022-09-09T07:23:41;13;;;13;;
49456;SDS011;35352;51.480;-0.862;2022-09-09T07:26:09;14;;;14;;
49456;SDS011;35352;51.480;-0.862;2022-09-09T07:28:37;13;;;12;;
49456;SDS011;35352;51.480;-0.862;2022-09-09T07:31:13;9;;;9;;
49456;SDS011;35352;51.480;-0.862;2022-09-09T07:33:42;11;;;11;;
49456;SDS011;35352;51.480;-0.862;2022-09-09T07:36:13;15;;;15;;
49456;SDS011;35352;51.480;-0.862;2022-09-09T07:38:45;14;;;14;;
49456;SDS011;35352;51.480;-0.862;2022-09-09T07:41:14;16;;;13;;
49456;SDS011;35352;51.480;-0.862;2022-09-09T07:43:44;16;;;13;;
49456;SDS011;35352;51.480;-0.862;2022-09-09T07:46:13;17;;;16;;
49456;SDS011;35352;51.480;-0.862;2022-09-09T07:48:43;19;;;19;;
49456;SDS011;35352;51.480;-0.862;2022-09-09T07:51:14;17;;;17;;
49456;SDS011;35352;51.480;-0.862;2022-09-09T07:53:42;14;;;14;;
49456;SDS011;35352;51.480;-0.862;2022-09-09T07:56:11;17;;;16;;
49456;SDS011;35352;51.480;-0.862;2022-09-09T07:58:44;15;;;15;;
49456;SDS011;35352;51.480;-0.862;2022-09-09T08:01:13;13;;;12;;
49456;SDS011;35352;51.480;-0.862;2022-09-09T08:03:42;16;;;15;;
49456;SDS011;35352;51.480;-0.862;2022-09-09T08:06:10;21;;;20;;
49456;SDS011;35352;51.480;-0.862;2022-09-09T08:08:39;18;;;14;;
49456;SDS011;35352;51.480;-0.862;2022-09-09T08:11:14;15;;;15;;
49456;SDS011;35352;51.480;-0.862;2022-09-09T08:13:42;19;;;16;;
49456;SDS011;35352;51.480;-0.862;2022-09-09T08:16:11;13;;;9;;
49456;SDS011;35352;51.480;-0.862;2022-09-09T08:18:41;13;;;13;;
49456;SDS011;35352;51.480;-0.862;2022-09-09T08:21:13;10;;;10;;
49456;SDS011;35352;51.480;-0.862;2022-09-09T08:23:43;23;;;19;;
49456;SDS011;35352;51.480;-0.862;2022-09-09T08:26:12;15;;;14;;
49456;SDS011;35352;51.480;-0.862;2022-09-09T08:28:42;9;;;9;;
49456;SDS011;35352;51.480;-0.862;2022-09-09T08:31:13;8;;;8;;
49456;SDS011;35352;51.480;-0.862;2022-09-09T08:33:42;9;;;9;;
49456;SDS011;35352;51.480;-0.862;2022-09-09T08:36:11;12;;;10;;
49456;SDS011;35352;51.480;-0.862;2022-09-09T08:38:40;9;;;8;;
49456;SDS011;35352;51.480;-0.862;2022-09-09T08:41:19;7;;;7;;
49456;SDS011;35352;51.480;-0.862;2022-09-09T08:44:04;12;;;12;;
49456;SDS011;35352;51.480;-0.862;2022-09-09T08:46:43;10;;;10;;
49456;SDS011;35352;51.480;-0.862;2022-09-09T08:49:23;13;;;10;;
49456;SDS011;35352;51.480;-0.862;2022-09-09T08:52:08;11;;;10;;
49456;SDS011;35352;51.480;-0.862;2022-09-09T08:54:45;9;;;9;;
49456;SDS011;35352;51.480;-0.862;2022-09-09T08:57:14;8;;;7;;
49456;SDS011;35352;51.480;-0.862;2022-09-09T08:59:49;9;;;9;;
49456;SDS011;35352;51.480;-0.862;2022-09-09T09:02:18;5;;;5;;
49456;SDS011;35352;51.480;-0.862;2022-09-09T09:04:56;5;;;5;;
49456;SDS011;35352;51.480;-0.862;2022-09-09T09:07:37;6;;;5;;
49456;SDS011;35352;51.480;-0.862;2022-09-09T09:11:13;4;;;4;;
49456;SDS011;35352;51.480;-0.862;2022-09-09T09:13:40;9;;;9;;
49456;SDS011;35352;51.480;-0.862;2022-09-09T09:16:19;5;;;5;;
49456;SDS011;35352;51.480;-0.862;2022-09-09T09:18:51;6;;;6;;
49456;SDS011;35352;51.480;-0.862;2022-09-09T09:21:20;5;;;3;;
49456;SDS011;35352;51.480;-0.862;2022-09-09T09:23:57;6;;;5;;
49456;SDS011;35352;51.480;-0.862;2022-09-09T09:26:26;8;;;6;;
49456;SDS011;35352;51.480;-0.862;2022-09-09T09:28:59;6;;;5;;
49456;SDS011;35352;51.480;-0.862;2022-09-09T09:31:38;7;;;5;;
49456;SDS011;35352;51.480;-0.862;2022-09-09T09:34:05;4;;;3;;
49456;SDS011;35352;51.480;-0.862;2022-09-09T09:36:37;6;;;6;;
49456;SDS011;35352;51.480;-0.862;2022-09-09T09:39:09;4;;;4;;
49456;SDS011;35352;51.480;-0.862;2022-09-09T09:41:38;6;;;6;;
49456;SDS011;35352;51.480;-0.862;2022-09-09T09:44:22;3;;;3;;
49456;SDS011;35352;51.480;-0.862;2022-09-09T09:46:53;4;;;3;;
49456;SDS011;35352;51.480;-0.862;2022-09-09T09:49:32;3;;;3;;
49456;SDS011;35352;51.480;-0.862;2022-09-09T09:52:00;5;;;4;;
49456;SDS011;35352;51.480;-0.862;2022-09-09T09:54:29;3;;;3;;
49456;SDS011;35352;51.480;-0.862;2022-09-09T09:57:08;2;;;2;;
49456;SDS011;35352;51.480;-0.862;2022-09-09T09:59:37;4;;;4;;
49456;SDS011;35352;51.480;-0.862;2022-09-09T10:02:12;5;;;4;;
49456;SDS011;35352;51.480;-0.862;2022-09-09T10:04:42;6;;;4;;
49456;SDS011;35352;51.480;-0.862;2022-09-09T10:07:10;3;;;3;;
49456;SDS011;35352;51.480;-0.862;2022-09-09T10:09:38;3;;;3;;
49456;SDS011;35352;51.480;-0.862;2022-09-09T10:12:07;3;;;3;;
49456;SDS011;35352;51.480;-0.862;2022-09-09T10:14:43;4;;;4;;
49456;SDS011;35352;51.480;-0.862;2022-09-09T10:17:24;1;;;1;;
49456;SDS011;35352;51.480;-0.862;2022-09-09T10:21:17;1;;;1;;
49456;SDS011;35352;51.480;-0.862;2022-09-09T10:23:58;4;;;4;;
49456;SDS011;35352;51.480;-0.862;2022-09-09T10:26:44;4;;;4;;
49456;SDS011;35352;51.480;-0.862;2022-09-09T10:29:26;4;;;4;;
49456;SDS011;35352;51.480;-0.862;2022-09-09T10:32:28;4;;;4;;
49456;SDS011;35352;51.480;-0.862;2022-09-09T10:35:09;3;;;3;;
49456;SDS011;35352;51.480;-0.862;2022-09-09T10:37:41;4;;;2;;
49456;SDS011;35352;51.480;-0.862;2022-09-09T10:41:18;2;;;2;;
49456;SDS011;35352;51.480;-0.862;2022-09-09T10:43:52;3;;;3;;
49456;SDS011;35352;51.480;-0.862;2022-09-09T10:46:30;4;;;4;;
49456;SDS011;35352;51.480;-0.862;2022-09-09T10:49:14;1;;;1;;
49456;SDS011;35352;51.480;-0.862;2022-09-09T10:51:55;2;;;2;;
49456;SDS011;35352;51.480;-0.862;2022-09-09T10:54:34;1;;;1;;
49456;SDS011;35352;51.480;-0.862;2022-09-09T10:57:17;3;;;3;;
49456;SDS011;35352;51.480;-0.862;2022-09-09T10:59:52;2;;;1;;
49456;SDS011;35352;51.480;-0.862;2022-09-09T11:02:25;3;;;3;;
49456;SDS011;35352;51.480;-0.862;2022-09-09T11:04:55;1;;;1;;
49456;SDS011;35352;51.480;-0.862;2022-09-09T11:07:29;3;;;3;;
49456;SDS011;35352;51.480;-0.862;2022-09-09T11:11:13;2;;;1;;
49456;SDS011;35352;51.480;-0.862;2022-09-09T11:13:48;2;;;2;;
49456;SDS011;35352;51.480;-0.862;2022-09-09T11:16:23;4;;;4;;
49456;SDS011;35352;51.480;-0.862;2022-09-09T11:18:58;2;;;2;;
49456;SDS011;35352;51.480;-0.862;2022-09-09T11:21:32;2;;;2;;
49456;SDS011;35352;51.480;-0.862;2022-09-09T11:24:06;3;;;3;;
49456;SDS011;35352;51.480;-0.862;2022-09-09T11:26:44;3;;;2;;
49456;SDS011;35352;51.480;-0.862;2022-09-09T11:29:24;2;;;2;;
49456;SDS011;35352;51.480;-0.862;2022-09-09T11:32:10;1;;;1;;
49456;SDS011;35352;51.480;-0.862;2022-09-09T11:34:53;1;;;1;;
49456;SDS011;35352;51.480;-0.862;2022-09-09T11:37:39;4;;;3;;
49456;SDS011;35352;51.480;-0.862;2022-09-09T11:41:12;1;;;1;;
49456;SDS011;35352;51.480;-0.862;2022-09-09T11:43:42;2;;;2;;
49456;SDS011;35352;51.480;-0.862;2022-09-09T11:46:13;4;;;4;;
49456;SDS011;35352;51.480;-0.862;2022-09-09T11:48:43;4;;;4;;
49456;SDS011;35352;51.480;-0.862;2022-09-09T11:51:24;2;;;2;;
49456;SDS011;35352;51.480;-0.862;2022-09-09T11:53:54;5;;;5;;
49456;SDS011;35352;51.480;-0.862;2022-09-09T11:56:24;6;;;5;;
49456;SDS011;35352;51.480;-0.862;2022-09-09T11:58:55;8;;;7;;
49456;SDS011;35352;51.480;-0.862;2022-09-09T12:01:27;5;;;5;;
49456;SDS011;35352;51.480;-0.862;2022-09-09T12:04:10;6;;;6;;
49456;SDS011;35352;51.480;-0.862;2022-09-09T12:06:59;4;;;4;;
49456;SDS011;35352;51.480;-0.862;2022-09-09T12:09:31;6;;;4;;
49456;SDS011;35352;51.480;-0.862;2022-09-09T12:12:22;3;;;3;;
49456;SDS011;35352;51.480;-0.862;2022-09-09T12:12:27;3;;;3;;
49456;SDS011;35352;51.480;-0.862;2022-09-09T12:14:59;4;;;3;;
49456;SDS011;35352;51.480;-0.862;2022-09-09T12:17:30;5;;;3;;
49456;SDS011;35352;51.480;-0.862;2022-09-09T12:20:03;2;;;2;;
49456;SDS011;35352;51.480;-0.862;2022-09-09T12:22:41;3;;;3;;
49456;SDS011;35352;51.480;-0.862;2022-09-09T12:25:30;5;;;5;;
49456;SDS011;35352;51.480;-0.862;2022-09-09T12:28:08;3;;;3;;
49456;SDS011;35352;51.480;-0.862;2022-09-09T12:31:14;2;;;2;;
49456;SDS011;35352;51.480;-0.862;2022-09-09T12:33:48;5;;;4;;
49456;SDS011;35352;51.480;-0.862;2022-09-09T12:36:16;6;;;6;;
49456;SDS011;35352;51.480;-0.862;2022-09-09T12:38:46;6;;;6;;
49456;SDS011;35352;51.480;-0.862;2022-09-09T12:41:20;2;;;2;;
49456;SDS011;35352;51.480;-0.862;2022-09-09T12:43:49;8;;;8;;
49456;SDS011;35352;51.480;-0.862;2022-09-09T12:46:20;9;;;8;;
49456;SDS011;35352;51.480;-0.862;2022-09-09T12:48:56;8;;;8;;
49456;SDS011;35352;51.480;-0.862;2022-09-09T12:51:24;8;;;7;;
49456;SDS011;35352;51.480;-0.862;2022-09-09T12:53:57;8;;;6;;
49456;SDS011;35352;51.480;-0.862;2022-09-09T12:56:27;7;;;6;;
49456;SDS011;35352;51.480;-0.862;2022-09-09T12:58:59;3;;;3;;
49456;SDS011;35352;51.480;-0.862;2022-09-09T13:01:27;4;;;4;;
49456;SDS011;35352;51.480;-0.862;2022-09-09T13:03:55;3;;;3;;
49456;SDS011;35352;51.480;-0.862;2022-09-09T13:06:23;2;;;2;;
49456;SDS011;35352;51.480;-0.862;2022-09-09T13:08:52;4;;;4;;
49456;SDS011;35352;51.480;-0.862;2022-09-09T13:11:22;2;;;2;;
49456;SDS011;35352;51.480;-0.862;2022-09-09T13:13:57;2;;;2;;
49456;SDS011;35352;51.480;-0.862;2022-09-09T13:16:26;4;;;4;;
49456;SDS011;35352;51.480;-0.862;2022-09-09T13:18:55;2;;;2;;
49456;SDS011;35352;51.480;-0.862;2022-09-09T13:21:31;3;;;3;;
49456;SDS011;35352;51.480;-0.862;2022-09-09T13:24:00;2;;;2;;
49456;SDS011;35352;51.480;-0.862;2022-09-09T13:26:27;2;;;2;;
49456;SDS011;35352;51.480;-0.862;2022-09-09T13:29:07;3;;;2;;
49456;SDS011;35352;51.480;-0.862;2022-09-09T13:31:42;3;;;3;;
49456;SDS011;35352;51.480;-0.862;2022-09-09T13:34:11;6;;;6;;
49456;SDS011;35352;51.480;-0.862;2022-09-09T13:36:39;7;;;7;;
49456;SDS011;35352;51.480;-0.862;2022-09-09T13:39:14;4;;;3;;
49456;SDS011;35352;51.480;-0.862;2022-09-09T13:41:44;4;;;4;;
49456;SDS011;35352;51.480;-0.862;2022-09-09T13:44:14;2;;;2;;
49456;SDS011;35352;51.480;-0.862;2022-09-09T13:46:47;2;;;2;;
49456;SDS011;35352;51.480;-0.862;2022-09-09T13:49:20;1;;;1;;
49456;SDS011;35352;51.480;-0.862;2022-09-09T13:51:49;4;;;4;;
49456;SDS011;35352;51.480;-0.862;2022-09-09T13:54:18;3;;;2;;
49456;SDS011;35352;51.480;-0.862;2022-09-09T13:56:46;3;;;2;;
49456;SDS011;35352;51.480;-0.862;2022-09-09T13:59:14;2;;;1;;
49456;SDS011;35352;51.480;-0.862;2022-09-09T14:01:42;3;;;2;;
49456;SDS011;35352;51.480;-0.862;2022-09-09T14:04:09;2;;;2;;
49456;SDS011;35352;51.480;-0.862;2022-09-09T14:06:38;2;;;2;;
49456;SDS011;35352;51.480;-0.862;2022-09-09T14:09:06;2;;;2;;
49456;SDS011;35352;51.480;-0.862;2022-09-09T14:11:38;4;;;2;;
49456;SDS011;35352;51.480;-0.862;2022-09-09T14:14:10;3;;;3;;
49456;SDS011;35352;51.480;-0.862;2022-09-09T14:16:38;4;;;4;;
49456;SDS011;35352;51.480;-0.862;2022-09-09T14:19:05;2;;;2;;
49456;SDS011;35352;51.480;-0.862;2022-09-09T14:21:33;1;;;1;;
49456;SDS011;35352;51.480;-0.862;2022-09-09T14:24:00;1;;;1;;
49456;SDS011;35352;51.480;-0.862;2022-09-09T14:26:28;1;;;1;;
49456;SDS011;35352;51.480;-0.862;2022-09-09T14:28:55;2;;;2;;
49456;SDS011;35352;51.480;-0.862;2022-09-09T14:31:23;1;;;1;;
49456;SDS011;35352;51.480;-0.862;2022-09-09T14:33:51;2;;;2;;
49456;SDS011;35352;51.480;-0.862;2022-09-09T14:36:19;2;;;2;;
49456;SDS011;35352;51.480;-0.862;2022-09-09T14:38:52;2;;;2;;
49456;SDS011;35352;51.480;-0.862;2022-09-09T14:41:20;3;;;1;;
49456;SDS011;35352;51.480;-0.862;2022-09-09T14:43:48;1;;;1;;
49456;SDS011;35352;51.480;-0.862;2022-09-09T14:46:17;1;;;1;;
49456;SDS011;35352;51.480;-0.862;2022-09-09T14:48:45;3;;;3;;
49456;SDS011;35352;51.480;-0.862;2022-09-09T14:51:13;0;;;0;;
49456;SDS011;35352;51.480;-0.862;2022-09-09T14:53:43;2;;;2;;
49456;SDS011;35352;51.480;-0.862;2022-09-09T14:56:12;1;;;1;;
49456;SDS011;35352;51.480;-0.862;2022-09-09T14:58:41;2;;;2;;
49456;SDS011;35352;51.480;-0.862;2022-09-09T15:01:14;0;;;0;;
49456;SDS011;35352;51.480;-0.862;2022-09-09T15:03:42;2;;;2;;
49456;SDS011;35352;51.480;-0.862;2022-09-09T15:06:16;1;;;0;;
49456;SDS011;35352;51.480;-0.862;2022-09-09T15:08:44;2;;;2;;
49456;SDS011;35352;51.480;-0.862;2022-09-09T15:11:13;0;;;0;;
49456;SDS011;35352;51.480;-0.862;2022-09-09T15:13:41;0;;;0;;
49456;SDS011;35352;51.480;-0.862;2022-09-09T15:16:10;6;;;6;;
49456;SDS011;35352;51.480;-0.862;2022-09-09T15:18:39;2;;;2;;
49456;SDS011;35352;51.480;-0.862;2022-09-09T15:21:14;0;;;0;;
49456;SDS011;35352;51.480;-0.862;2022-09-09T15:23:42;2;;;2;;
49456;SDS011;35352;51.480;-0.862;2022-09-09T15:26:10;3;;;2;;
49456;SDS011;35352;51.480;-0.862;2022-09-09T15:28:38;1;;;1;;
49456;SDS011;35352;51.480;-0.862;2022-09-09T15:31:13;0;;;0;;
49456;SDS011;35352;51.480;-0.862;2022-09-09T15:33:42;3;;;1;;
49456;SDS011;35352;51.480;-0.862;2022-09-09T15:36:16;2;;;1;;
49456;SDS011;35352;51.480;-0.862;2022-09-09T15:38:44;1;;;1;;
49456;SDS011;35352;51.480;-0.862;2022-09-09T15:41:13;0;;;0;;
49456;SDS011;35352;51.480;-0.862;2022-09-09T15:43:43;3;;;1;;
49456;SDS011;35352;51.480;-0.862;2022-09-09T15:46:22;1;;;1;;
49456;SDS011;35352;51.480;-0.862;2022-09-09T15:48:56;2;;;2;;
49456;SDS011;35352;51.480;-0.862;2022-09-09T15:51:29;3;;;1;;
49456;SDS011;35352;51.480;-0.862;2022-09-09T15:53:57;2;;;2;;
49456;SDS011;35352;51.480;-0.862;2022-09-09T15:56:26;1;;;1;;
49456;SDS011;35352;51.480;-0.862;2022-09-09T15:58:56;1;;;1;;
49456;SDS011;35352;51.480;-0.862;2022-09-09T16:01:26;3;;;2;;
49456;SDS011;35352;51.480;-0.862;2022-09-09T16:03:53;0;;;0;;
49456;SDS011;35352;51.480;-0.862;2022-09-09T16:06:21;3;;;2;;
49456;SDS011;35352;51.480;-0.862;2022-09-09T16:08:51;1;;;1;;
49456;SDS011;35352;51.480;-0.862;2022-09-09T16:11:20;1;;;1;;
49456;SDS011;35352;51.480;-0.862;2022-09-09T16:13:50;1;;;1;;
49456;SDS011;35352;51.480;-0.862;2022-09-09T16:16:20;1;;;1;;
49456;SDS011;35352;51.480;-0.862;2022-09-09T16:18:51;2;;;2;;
49456;SDS011;35352;51.480;-0.862;2022-09-09T16:21:20;4;;;4;;
49456;SDS011;35352;51.480;-0.862;2022-09-09T16:23:51;2;;;2;;
49456;SDS011;35352;51.480;-0.862;2022-09-09T16:26:19;1;;;1;;
49456;SDS011;35352;51.480;-0.862;2022-09-09T16:28:48;2;;;2;;
49456;SDS011;35352;51.480;-0.862;2022-09-09T16:31:17;1;;;1;;